Pottsboro, Texas
Current Conditions -  °F | °C
As of 11:35 PM on Wednesday 22 Oct 2014 (Local Time) from KGYI Reporting Station
Clear Clear  
Wind Chill: 19°   Ceiling: Unl
Heat Index: 19°   Visibility: 10mi
Dew Point: 14°   Wind: 8mph
Humidity: 70%   Direction: 110°ESE
Pressure: 30.13"   Gusts: NA
Location:  33.76°N, 96.67°W
Report Text: KGYI 230435Z AUTO 11007KT 10SM CLR 19/14 A3013 RMK AO2 T01940138
Loading
Personal Weather Stations






























Interactive Weather Map
Tropical Storm Tracking
New forecast layout! Learn more

10-Day Weather Forecast

Advertisements
Track Severe Weather on mobile